BA1327 / G-EUPD 7700 Squawk Report (16th of December, 2018)

Aircraft A319 Reg No. G-EUPD Age 19 years old
Model A319 Jet engines 2 First flight 19-11-99
Registered 10-12-99 Rollout 11-99 Delivered 10-12-99
Construction No. 1142 Line No. N/A Series 131
ADSHEX 400804 Airline name British Airways Owner Amethyst Leasing Limited
Airfield based Heathrow~Gtr London~G First tracked 2017-07-13 08:33:00

Flight history for G-EUPD

Route Flight No Date Playback
Heathrow (LHR) - Schiphol (AMS) BA444 2019-10-17 19:54:00
Leeds Bradford (LBA) - Heathrow (LHR) BA1345 2019-10-17 17:31:00
Heathrow (LHR) - Leeds Bradford (LBA) BA1344 2019-10-17 16:41:00
Venezia Tessera (VCE) - Heathrow (LHR) BA579 2019-10-17 13:12:00
Heathrow (LHR) - Venezia Tessera (VCE) BA578 2019-10-17 11:07:00
Tegel (TXL) - Heathrow (LHR) BA981 2019-10-17 08:12:00
Heathrow (LHR) - Tegel (TXL) BA988 2019-10-17 05:21:00
Brussels Airport (BRU) - Heathrow (LHR) BA397 2019-10-16 15:39:00
Heathrow (LHR) - Brussels Airport (BRU) BA396 2019-10-16 13:45:00
Landvetter (GOT) - Heathrow (LHR) BA791 2019-10-16 12:39:00
Heathrow (LHR) - Landvetter (GOT) BA790 2019-10-16 09:40:00
Inverness (INV) - Heathrow (LHR) BA1471 2019-10-14 21:41:00
Heathrow (LHR) - Inverness (INV) BA1470 2019-10-14 17:35:00
Glasgow (GLA) - Heathrow (LHR) BA1487 2019-10-14 15:11:00
Heathrow (LHR) - Glasgow (GLA) BA1482 2019-10-14 13:46:00
Dyce (ABZ) - Heathrow (LHR) BA1305 2019-10-14 10:36:00
Heathrow (LHR) - Dyce (ABZ) BA1304 2019-10-14 08:25:00
Gardermoen (OSL) - Heathrow (LHR) BA769 2019-10-14 05:21:00
Heathrow (LHR) - Gardermoen (OSL) BA768 2019-10-13 18:29:00
Dyce (ABZ) - Heathrow (LHR) BA1309 2019-10-13 16:28:00
Time Lat Lon Altitude Heading Speed Vertical Rate
2018-12-16 13:17:24 GMT 51.468212 -0.486183 0 180 0
2018-12-16 13:17:15 GMT 51.468224 -0.486182 0 180 0
2018-12-16 13:17:05 GMT 51.468246 -0.486183 0 180 0
2018-12-16 13:16:55 GMT 51.468269 -0.486183 0 180 0
We lost coverage of the aircraft here for a total of 10 minutes
2018-12-16 13:07:04 GMT 51.477585 -0.463504 0 270 48 0
2018-12-16 13:06:46 GMT 51.477627 -0.455418 0 270 68 0
2018-12-16 13:06:23 GMT 51.477676 -0.435742 0 271 133 0
2018-12-16 13:06:19 GMT 51.477676 -0.431436 325 270 132 -576
2018-12-16 13:06:12 GMT 51.477676 -0.424384 450 270 133 -768
2018-12-16 13:06:09 GMT 51.477695 -0.421066 450 270 133 -768
2018-12-16 13:06:05 GMT 51.477722 -0.418520 550 270 133 -704
2018-12-16 13:06:01 GMT 51.477745 -0.413589 525 270 133 -704
2018-12-16 13:05:56 GMT 51.477745 -0.409622 625 270 131 -576
2018-12-16 13:05:51 GMT 51.477768 -0.403970 650 270 131 -576
2018-12-16 13:05:48 GMT 51.477814 -0.396696 750 270 130 -576
2018-12-16 13:05:44 GMT 51.477814 -0.396696 750 270 129 -640
2018-12-16 13:05:39 GMT 51.477814 -0.392093 775 270 129 -640
2018-12-16 13:05:36 GMT 51.477837 -0.389633 825 270 128 -704
2018-12-16 13:05:32 GMT 51.477837 -0.386581 875 270 128 -704
2018-12-16 13:05:29 GMT 51.477814 -0.383334 900 270 127 -704
2018-12-16 13:05:24 GMT 51.477859 -0.378063 950 270 127 -704
2018-12-16 13:05:21 GMT 51.477882 -0.375290 1,000 270 126 -640
2018-12-16 13:05:18 GMT 51.477859 -0.372496 1,050 270 126 -640
2018-12-16 13:05:15 GMT 51.477905 -0.369155 1,075 270 126 -640
2018-12-16 13:05:11 GMT 51.477882 -0.366364 1,150 270 126 -640
2018-12-16 13:05:08 GMT 51.477905 -0.363514 1,150 270 126 -640
2018-12-16 13:05:05 GMT 51.477905 -0.360916 1,200 270 125 -640
2018-12-16 13:05:02 GMT 51.477905 -0.354235 1,400 270 156 -768
2018-12-16 13:04:59 GMT 51.477905 -0.354235 1,250 270 125 -640
2018-12-16 13:04:53 GMT 51.477928 -0.349274 1,300 270 125 -704
2018-12-16 13:04:50 GMT 51.477928 -0.347061 1,325 270 125 -704
2018-12-16 13:04:47 GMT 51.477951 -0.343842 1,425 270 126 -640
2018-12-16 13:04:44 GMT 51.477978 -0.340729 1,425 270 126 -704
2018-12-16 13:04:40 GMT 51.477951 -0.337162 1,450 270 126 -704
2018-12-16 13:04:37 GMT 51.477978 -0.334778 1,500 270 126 -704
2018-12-16 13:04:31 GMT 51.477997 -0.328996 1,575 270 126 -704
2018-12-16 13:04:28 GMT 51.477978 -0.326157 1,625 270 130 -640
2018-12-16 13:04:25 GMT 51.478043 -0.320459 1,675 270 125 -576
2018-12-16 13:04:21 GMT 51.478024 -0.316925 1,700 270 126 -512
2018-12-16 13:04:18 GMT 51.478024 -0.316925 1,700 270 135 -832
2018-12-16 13:04:15 GMT 51.478043 -0.314447 1,850 270 152 -832
2018-12-16 13:04:12 GMT 51.478069 -0.308456 1,900 270 139 -1024
2018-12-16 13:04:06 GMT 51.478088 -0.305093 1,825 270 137 -896
2018-12-16 13:04:03 GMT 51.478069 -0.302048 1,900 270 139 -1024
2018-12-16 13:04:00 GMT 51.478069 -0.299606 2,025 270 146 -704
2018-12-16 13:03:56 GMT 51.478115 -0.294952 2,025 270 145 -768
2018-12-16 13:03:53 GMT 51.478088 -0.291286 2,025 270 146 -704
2018-12-16 13:03:50 GMT 51.478088 -0.289133 2,075 270 151 -832
2018-12-16 13:03:47 GMT 51.478115 -0.285263 2,100 270 156 -832
2018-12-16 13:03:44 GMT 51.478088 -0.280523 2,150 270 156 -768
2018-12-16 13:03:40 GMT 51.478088 -0.276811 2,200 270 156 -768
2018-12-16 13:03:36 GMT 51.478134 -0.269388 2,275 270 157 -768
2018-12-16 13:03:33 GMT 51.478134 -0.269388 2,275 270 156 -832
2018-12-16 13:03:30 GMT 51.478115 -0.265427 2,700 270 156 -832
2018-12-16 13:03:27 GMT 51.478115 -0.261307 2,500 270 156 -768
2018-12-16 13:03:24 GMT 51.478134 -0.255952 2,425 270 156 -768
2018-12-16 13:03:18 GMT 51.478165 -0.251541 2,475 270 157 -896
2018-12-16 13:03:13 GMT 51.478180 -0.245782 2,550 270 157 -960
2018-12-16 13:03:10 GMT 51.478180 -0.241625 2,625 270 157 -832
2018-12-16 13:03:07 GMT 51.478165 -0.238571 2,725 270 157 -896
2018-12-16 13:03:04 GMT 51.478165 -0.235291 2,700 270 157 -896
2018-12-16 13:03:01 GMT 51.478165 -0.232086 2,775 270 158 -960
2018-12-16 13:02:58 GMT 51.478180 -0.228560 2,825 270 158 -960
2018-12-16 13:02:55 GMT 51.478226 -0.224329 2,850 270 158 -960
2018-12-16 13:02:49 GMT 51.478226 -0.217351 2,950 270 158 -832
2018-12-16 13:02:46 GMT 51.478256 -0.213394 2,975 270 159 -768
2018-12-16 13:02:43 GMT 51.478210 -0.211029 3,075 270 159 -768
2018-12-16 13:02:40 GMT 51.478210 -0.208206 3,125 270 159 -768
2018-12-16 13:02:37 GMT 51.478226 -0.202802 3,125 270 159 -768
2018-12-16 13:02:34 GMT 51.478226 -0.200426 3,150 270 159 -704
2018-12-16 13:02:31 GMT 51.478210 -0.196915 3,175 270 158 -576
2018-12-16 13:02:28 GMT 51.478256 -0.192719 3,225 270 157 -256
2018-12-16 13:02:25 GMT 51.478271 -0.188772 3,225 270 157 -320
2018-12-16 13:02:22 GMT 51.478256 -0.186234 3,250 270 157 -256
2018-12-16 13:02:19 GMT 51.478271 -0.182314 3,250 271 157 -320
2018-12-16 13:02:16 GMT 51.478226 -0.178082 3,275 271 158 -320
2018-12-16 13:02:13 GMT 51.478226 -0.175781 3,275 271 158 -320
2018-12-16 13:02:10 GMT 51.478165 -0.168457 3,300 271 159 -256
2018-12-16 13:02:07 GMT 51.478165 -0.168457 3,325 271 160 -320
2018-12-16 13:02:03 GMT 51.478115 -0.162811 3,350 269 161 -320
2018-12-16 13:02:00 GMT 51.478134 -0.161158 3,325 270 160 -320
2018-12-16 13:01:57 GMT 51.478115 -0.157623 3,350 270 161 -320
2018-12-16 13:01:54 GMT 51.478180 -0.152621 3,375 269 161 -320
2018-12-16 13:01:51 GMT 51.478271 -0.149280 3,500 253 179 -256
2018-12-16 13:01:48 GMT 51.478348 -0.145645 3,450 185 198 -640
2018-12-16 13:01:45 GMT 51.478455 -0.142971 3,425 268 163 -320
2018-12-16 13:01:42 GMT 51.478592 -0.139111 3,450 265 167 -320
2018-12-16 13:01:39 GMT 51.478775 -0.135176 3,450 264 168 -320
2018-12-16 13:01:36 GMT 51.479095 -0.130648 3,475 263 171 -320
2018-12-16 13:01:33 GMT 51.479328 -0.127869 3,500 262 171 -256
2018-12-16 13:01:30 GMT 51.480350 -0.119324 3,500 256 176 -256
2018-12-16 13:01:27 GMT 51.480350 -0.119324 3,525 256 176 -256
2018-12-16 13:01:24 GMT 51.480816 -0.116806 3,525 253 179 -256
2018-12-16 13:01:21 GMT 51.482071 -0.110977 3,550 252 179 -256
2018-12-16 13:01:17 GMT 51.482960 -0.107803 3,575 244 183 -512
2018-12-16 13:01:14 GMT 51.483948 -0.104667 3,600 241 184 -448
2018-12-16 13:01:11 GMT 51.485474 -0.100708 3,625 236 185 -448
2018-12-16 13:01:08 GMT 51.487148 -0.097198 3,800 178 201 -512
2018-12-16 13:01:05 GMT 51.489166 -0.093681 3,675 223 188 -704
2018-12-16 13:01:02 GMT 51.490917 -0.091400 3,750 212 191 -704
2018-12-16 13:00:59 GMT 51.493340 -0.089035 3,750 206 192 -768
2018-12-16 13:00:56 GMT 51.495014 -0.087967 3,775 199 194 -768
2018-12-16 13:00:53 GMT 51.497761 -0.086746 3,800 191 196 -704
2018-12-16 13:00:50 GMT 51.502350 -0.086035 3,900 178 201 -512
2018-12-16 13:00:47 GMT 51.503815 -0.086109 3,900 175 204 -448
2018-12-16 13:00:44 GMT 51.507568 -0.086480 3,900 175 204 -448
2018-12-16 13:00:40 GMT 51.510426 -0.086823 3,950 175 207 -512
2018-12-16 13:00:37 GMT 51.514069 -0.087371 3,975 174 208 -576
2018-12-16 13:00:34 GMT 51.516357 -0.087816 4,000 172 211 -576
2018-12-16 13:00:30 GMT 51.519836 -0.088633 4,075 166 214 -704
2018-12-16 13:00:27 GMT 51.523926 -0.090256 4,075 164 215 -768
2018-12-16 13:00:24 GMT 51.525787 -0.091400 4,125 153 221 -832
2018-12-16 13:00:21 GMT 51.528534 -0.093606 4,175 148 223 -832
2018-12-16 13:00:18 GMT 51.531647 -0.097021 4,275 130 233 -832
2018-12-16 13:00:15 GMT 51.533421 -0.099411 4,250 138 229 -832
2018-12-16 13:00:12 GMT 51.535950 -0.103554 4,950 131 233 -832
2018-12-16 13:00:09 GMT 51.537796 -0.106964 4,325 129 234 -896
2018-12-16 13:00:06 GMT 51.542267 -0.115876 4,500 128 234 -1280
2018-12-16 13:00:02 GMT 51.544544 -0.120544 4,500 128 234 -1280
2018-12-16 12:59:59 GMT 51.544544 -0.120544 4,550 128 234 -1280
2018-12-16 12:59:56 GMT 51.546177 -0.123825 4,575 128 234 -1152
2018-12-16 12:59:53 GMT 51.551064 -0.133591 4,700 128 236 -960
2018-12-16 12:59:50 GMT 51.551064 -0.133591 4,725 128 235 -1024
2018-12-16 12:59:47 GMT 51.552692 -0.136871 4,850 128 239 -1216
2018-12-16 12:59:44 GMT 51.555038 -0.141486 4,950 128 236 -896
2018-12-16 12:59:41 GMT 51.557465 -0.146460 4,875 128 237 -896
2018-12-16 12:59:38 GMT 51.558979 -0.149460 4,900 128 237 -960
2018-12-16 12:59:35 GMT 51.561489 -0.154419 4,975 128 238 -1024
2018-12-16 12:59:32 GMT 51.563278 -0.157966 5,025 128 239 -1152
2018-12-16 12:59:29 GMT 51.565353 -0.162125 5,075 128 239 -1216
2018-12-16 12:59:26 GMT 51.567673 -0.166873 5,100 128 239 -1216
2018-12-16 12:59:23 GMT 51.571407 -0.174332 5,275 128 239 -1216
2018-12-16 12:59:20 GMT 51.573486 -0.178528 5,275 128 239 -1216
2018-12-16 12:59:17 GMT 51.573486 -0.178528 5,700 128 239 -1216
2018-12-16 12:59:14 GMT 51.575829 -0.183182 5,400 128 239 -1152
2018-12-16 12:59:11 GMT 51.577606 -0.186842 5,475 128 239 -1152
2018-12-16 12:59:08 GMT 51.580353 -0.192335 5,550 128 239 -1152
2018-12-16 12:59:05 GMT 51.582047 -0.195675 5,550 128 239 -1088
2018-12-16 12:59:02 GMT 51.585892 -0.203470 5,625 128 239 -1088
2018-12-16 12:58:59 GMT 51.585892 -0.203470 5,675 128 239 -1088
2018-12-16 12:58:55 GMT 51.588818 -0.209351 5,750 128 241 -1024
2018-12-16 12:58:52 GMT 51.591003 -0.213852 5,825 128 241 -1088
2018-12-16 12:58:49 GMT 51.592960 -0.217819 5,850 128 241 -1088
2018-12-16 12:58:46 GMT 51.594727 -0.221434 5,900 128 241 -1152
2018-12-16 12:58:43 GMT 51.596825 -0.225677 5,925 128 241 -1152
2018-12-16 12:58:40 GMT 51.599762 -0.231529 6,075 128 241 -1152
2018-12-16 12:58:37 GMT 51.601135 -0.234350 6,125 128 241 -1216
2018-12-16 12:58:34 GMT 51.603378 -0.238804 6,125 128 241 -1216
2018-12-16 12:58:30 GMT 51.605850 -0.243852 6,200 128 241 -1216
2018-12-16 12:58:27 GMT 51.610184 -0.252533 6,350 128 241 -1216
2018-12-16 12:58:24 GMT 51.610184 -0.252533 6,400 128 241 -1216
2018-12-16 12:58:21 GMT 51.612305 -0.256768 6,450 128 241 -1216
2018-12-16 12:58:18 GMT 51.614227 -0.260703 6,475 128 241 -1152
2018-12-16 12:58:15 GMT 51.617340 -0.266864 6,550 128 242 -1216
2018-12-16 12:58:12 GMT 51.619263 -0.270724 6,750 128 244 -1088
2018-12-16 12:58:09 GMT 51.620407 -0.273025 6,675 128 242 -1216
2018-12-16 12:58:06 GMT 51.622375 -0.276959 6,775 128 244 -1152
2018-12-16 12:58:03 GMT 51.625313 -0.282898 6,800 128 244 -1152
2018-12-16 12:58:00 GMT 51.626991 -0.286255 6,875 128 244 -1088
2018-12-16 12:57:57 GMT 51.628944 -0.290222 6,900 128 244 -1088
2018-12-16 12:57:54 GMT 51.631073 -0.294478 6,950 128 244 -1152
2018-12-16 12:57:51 GMT 51.633461 -0.299301 7,025 128 244 -1152
2018-12-16 12:57:48 GMT 51.635010 -0.302421 7,100 128 245 -1216
2018-12-16 12:57:45 GMT 51.637978 -0.308380 7,150 128 245 -1280
2018-12-16 12:57:42 GMT 51.640259 -0.312958 7,175 129 244 -1280
2018-12-16 12:57:39 GMT 51.641422 -0.315170 7,325 129 243 -1344
2018-12-16 12:57:36 GMT 51.643845 -0.320014 7,325 129 243 -1344
2018-12-16 12:57:33 GMT 51.645985 -0.324173 7,400 129 243 -1344
2018-12-16 12:57:30 GMT 51.648651 -0.329516 7,475 129 243 -1344
2018-12-16 12:57:27 GMT 51.650780 -0.333710 7,550 129 243 -1344
2018-12-16 12:57:24 GMT 51.653229 -0.338498 7,625 129 242 -1280
2018-12-16 12:57:21 GMT 51.655472 -0.342952 7,700 129 242 -1216
2018-12-16 12:57:18 GMT 51.659298 -0.350494 7,775 128 243 -1024
2018-12-16 12:57:15 GMT 51.659298 -0.350494 7,800 128 243 -896
2018-12-16 12:57:12 GMT 51.660828 -0.353641 7,850 128 243 -768
2018-12-16 12:57:09 GMT 51.663254 -0.358429 7,950 128 245 -384
2018-12-16 12:57:05 GMT 51.666183 -0.364479 7,925 127 245 -320
2018-12-16 12:57:02 GMT 51.667831 -0.367894 7,975 127 247 -192
2018-12-16 12:56:59 GMT 51.670193 -0.372925 7,950 126 248 -128
2018-12-16 12:56:56 GMT 51.672005 -0.377197 7,975 119 251 -64
2018-12-16 12:56:53 GMT 51.674286 -0.382843 7,975 120 251 -64
2018-12-16 12:56:50 GMT 51.675449 -0.386047 8,000 118 252 -64
2018-12-16 12:56:47 GMT 51.677547 -0.392761 8,000 116 253 -64
2018-12-16 12:56:44 GMT 51.678635 -0.396547 8,000 113 253 -64
2018-12-16 12:56:41 GMT 51.681839 -0.408276 8,000 113 254 -64
2018-12-16 12:56:38 GMT 51.681839 -0.408276 8,000 113 254 -64
2018-12-16 12:56:35 GMT 51.682983 -0.412433 8,025 113 252 -128
2018-12-16 12:56:32 GMT 51.684631 -0.418668 8,025 113 254 -896
2018-12-16 12:56:29 GMT 51.686020 -0.423813 8,025 113 251 -128
2018-12-16 12:56:26 GMT 51.687138 -0.427933 8,050 113 250 -192
2018-12-16 12:56:23 GMT 51.688705 -0.433811 8,050 113 249 -192
2018-12-16 12:56:20 GMT 51.689930 -0.438232 8,050 113 249 -384
2018-12-16 12:56:17 GMT 51.691418 -0.443649 8,050 113 250 -512
2018-12-16 12:56:13 GMT 51.693146 -0.450143 8,100 113 252 -832
2018-12-16 12:56:10 GMT 51.694771 -0.456009 8,150 113 252 -960
2018-12-16 12:56:07 GMT 51.696075 -0.460815 8,175 113 252 -960
2018-12-16 12:56:04 GMT 51.698776 -0.470779 8,275 113 253 -960
2018-12-16 12:56:01 GMT 51.698776 -0.470779 8,275 113 253 -960
2018-12-16 12:55:58 GMT 51.700104 -0.475678 8,300 113 254 -960
2018-12-16 12:55:55 GMT 51.701797 -0.481914 8,375 113 255 -960
2018-12-16 12:55:52 GMT 51.703197 -0.487137 8,450 113 256 -960
2018-12-16 12:55:49 GMT 51.704918 -0.493393 8,475 113 256 -960
2018-12-16 12:55:46 GMT 51.706268 -0.498276 8,525 113 256 -960
2018-12-16 12:55:43 GMT 51.707619 -0.503159 8,575 114 258 -960
2018-12-16 12:55:40 GMT 51.708481 -0.506336 8,625 115 258 -960
2018-12-16 12:55:37 GMT 51.710178 -0.512314 8,775 118 258 -960
2018-12-16 12:55:34 GMT 51.711685 -0.517545 8,700 115 258 -960
2018-12-16 12:55:31 GMT 51.713196 -0.522296 8,775 118 258 -960
2018-12-16 12:55:28 GMT 51.715160 -0.528030 8,875 122 256 -1088
2018-12-16 12:55:25 GMT 51.717636 -0.534099 8,900 126 255 -1024
2018-12-16 12:55:22 GMT 51.719055 -0.537142 8,925 129 254 -832
2018-12-16 12:55:18 GMT 51.722397 -0.543452 8,975 132 251 -256
2018-12-16 12:55:15 GMT 51.725601 -0.548871 9,000 133 252 0
2018-12-16 12:55:12 GMT 51.726883 -0.551098 9,000 133 253 64
2018-12-16 12:55:09 GMT 51.728985 -0.554657 9,000 133 253 128
2018-12-16 12:55:06 GMT 51.731689 -0.559338 9,000 133 254 128
2018-12-16 12:55:03 GMT 51.734760 -0.564575 8,975 133 256 64
2018-12-16 12:55:00 GMT 51.737087 -0.568466 8,975 133 261 0
2018-12-16 12:54:57 GMT 51.741695 -0.576248 8,975 133 265 -64
2018-12-16 12:54:54 GMT 51.741695 -0.576248 8,975 133 262 0
2018-12-16 12:54:51 GMT 51.744396 -0.580826 9,000 133 265 -64
2018-12-16 12:54:48 GMT 51.749313 -0.589179 9,000 133 266 0
2018-12-16 12:54:45 GMT 51.751190 -0.592346 9,000 133 266 -64
2018-12-16 12:54:39 GMT 51.754219 -0.597534 9,000 133 266 -64
2018-12-16 12:54:36 GMT 51.756920 -0.602112 9,000 133 266 -64
2018-12-16 12:54:33 GMT 51.759945 -0.607376 9,000 133 266 -64
2018-12-16 12:54:29 GMT 51.762817 -0.612265 9,000 133 266 -64
2018-12-16 12:54:25 GMT 51.766159 -0.618055 9,000 132 268 0
2018-12-16 12:54:22 GMT 51.768539 -0.622138 9,000 133 268 0
2018-12-16 12:54:18 GMT 51.771721 -0.627747 9,000 133 269 0
2018-12-16 12:54:15 GMT 51.774796 -0.633011 9,000 133 270 -64
2018-12-16 12:54:12 GMT 51.777374 -0.637430 9,000 132 273 -64
2018-12-16 12:54:09 GMT 51.779434 -0.641067 9,025 132 283 -768
2018-12-16 12:54:06 GMT 51.782429 -0.646210 9,025 133 278 -320
2018-12-16 12:54:03 GMT 51.788059 -0.655975 9,050 133 285 -1536
2018-12-16 12:54:00 GMT 51.788059 -0.655975 9,375 133 285 -1536
2018-12-16 12:53:57 GMT 51.790203 -0.659714 9,125 133 284 -1088
2018-12-16 12:53:54 GMT 51.792938 -0.664302 9,175 133 285 -1280
2018-12-16 12:53:51 GMT 51.795605 -0.669022 9,200 133 285 -1408
2018-12-16 12:53:47 GMT 51.799393 -0.675511 9,375 133 285 -1536
2018-12-16 12:53:44 GMT 51.802277 -0.680484 9,450 133 285 -1536
2018-12-16 12:53:41 GMT 51.805378 -0.685730 9,500 133 285 -1536
2018-12-16 12:53:38 GMT 51.807892 -0.690079 9,600 133 285 -1536
2018-12-16 12:53:35 GMT 51.810081 -0.693817 9,950 133 286 -1600
2018-12-16 12:53:32 GMT 51.813011 -0.698776 9,725 133 286 -1536
2018-12-16 12:53:29 GMT 51.816643 -0.704956 9,825 133 285 -1536
2018-12-16 12:53:26 GMT 51.819351 -0.709583 9,950 133 286 -1600
2018-12-16 12:53:23 GMT 51.821869 -0.713963 10,025 133 286 -1536
2018-12-16 12:53:20 GMT 51.823162 -0.716171 10,050 133 285 -1536
2018-12-16 12:53:17 GMT 51.827682 -0.723984 10,075 133 285 -1536
2018-12-16 12:53:14 GMT 51.829632 -0.727386 10,225 132 286 -1536
2018-12-16 12:53:11 GMT 51.832146 -0.731735 10,275 132 286 -1536
2018-12-16 12:53:08 GMT 51.835033 -0.736771 10,550 132 286 -1536
2018-12-16 12:53:05 GMT 51.837219 -0.740509 10,475 132 286 -1536
2018-12-16 12:53:02 GMT 51.840431 -0.746155 10,550 133 286 -1536
2018-12-16 12:52:59 GMT 51.843319 -0.751190 10,600 133 286 -1600
2018-12-16 12:52:56 GMT 51.844940 -0.753974 10,675 133 286 -1600
2018-12-16 12:52:53 GMT 51.848392 -0.759888 10,775 133 286 -1600
2018-12-16 12:52:50 GMT 51.854214 -0.769882 10,875 133 286 -1600
2018-12-16 12:52:47 GMT 51.854214 -0.769882 10,925 133 286 -1600
2018-12-16 12:52:43 GMT 51.857254 -0.775130 11,025 133 285 -1600
2018-12-16 12:52:40 GMT 51.860355 -0.780411 11,100 133 285 -1600
2018-12-16 12:52:36 GMT 51.863613 -0.785980 11,200 133 285 -1536
2018-12-16 12:52:33 GMT 51.866730 -0.791238 12,375 132 285 -1536
2018-12-16 12:52:30 GMT 51.868881 -0.794950 11,400 133 285 -1536
2018-12-16 12:52:27 GMT 51.872692 -0.801468 11,500 133 285 -1536
2018-12-16 12:52:24 GMT 51.874138 -0.803909 11,550 133 285 -1536
2018-12-16 12:52:21 GMT 51.877396 -0.809479 11,600 133 285 -1536
2018-12-16 12:52:18 GMT 51.880096 -0.814176 11,875 133 285 -1536
2018-12-16 12:52:15 GMT 51.883167 -0.819473 11,800 132 285 -1536
2018-12-16 12:52:12 GMT 51.888893 -0.829391 11,900 132 285 -1536
2018-12-16 12:52:09 GMT 51.888893 -0.829391 11,950 133 285 -1536
2018-12-16 12:52:06 GMT 51.890900 -0.832882 12,100 132 285 -1536
2018-12-16 12:52:02 GMT 51.894836 -0.839691 12,475 132 285 -1536
2018-12-16 12:51:59 GMT 51.897720 -0.844727 12,250 132 285 -1536
2018-12-16 12:51:56 GMT 51.900021 -0.848772 12,275 132 283 -1600
2018-12-16 12:51:53 GMT 51.901836 -0.851911 12,300 132 285 -1536
2018-12-16 12:51:50 GMT 51.905960 -0.859070 12,450 133 284 -1536
2018-12-16 12:51:47 GMT 51.907745 -0.862198 12,600 133 284 -1600
2018-12-16 12:51:44 GMT 51.910446 -0.866821 12,625 133 283 -1600
2018-12-16 12:51:41 GMT 51.912586 -0.870510 12,700 133 283 -1600
2018-12-16 12:51:38 GMT 51.916172 -0.876709 12,775 133 283 -1600
2018-12-16 12:51:35 GMT 51.918316 -0.880476 12,850 132 283 -1600
2018-12-16 12:51:32 GMT 51.920830 -0.884792 12,900 132 283 -1600
2018-12-16 12:51:29 GMT 51.924740 -0.891619 13,025 132 283 -1600
2018-12-16 12:51:26 GMT 51.926182 -0.894052 13,075 132 282 -1600
2018-12-16 12:51:23 GMT 51.929020 -0.898996 13,150 132 282 -1600
2018-12-16 12:51:20 GMT 51.931862 -0.903939 13,375 132 280 -1280
2018-12-16 12:51:17 GMT 51.934326 -0.908255 13,350 132 280 -1088
2018-12-16 12:51:14 GMT 51.936794 -0.912571 13,400 132 280 -1024
2018-12-16 12:51:11 GMT 51.942802 -0.922930 13,475 132 280 -960
2018-12-16 12:51:08 GMT 51.942802 -0.922930 13,525 132 280 -960
2018-12-16 12:51:05 GMT 51.948257 -0.932465 13,550 132 280 -960
2018-12-16 12:51:02 GMT 51.948257 -0.932465 13,625 132 280 -960
2018-12-16 12:50:58 GMT 51.951645 -0.938311 13,625 132 280 -960
2018-12-16 12:50:55 GMT 51.954113 -0.942548 13,700 132 281 -960
2018-12-16 12:50:52 GMT 51.956772 -0.947189 13,775 133 282 -960
2018-12-16 12:50:49 GMT 51.959610 -0.952148 13,800 132 283 -896
2018-12-16 12:50:46 GMT 51.961933 -0.956124 13,950 133 285 -960
2018-12-16 12:50:43 GMT 51.964821 -0.961147 13,900 133 284 -960
2018-12-16 12:50:39 GMT 51.968731 -0.967974 13,975 133 285 -960
2018-12-16 12:50:35 GMT 51.972519 -0.974579 14,050 132 287 -960
2018-12-16 12:50:32 GMT 51.974129 -0.977391 14,075 132 287 -1024
2018-12-16 12:50:29 GMT 51.977234 -0.982742 14,150 133 290 -896
2018-12-16 12:50:26 GMT 51.982681 -0.992279 14,200 132 289 -896
2018-12-16 12:50:23 GMT 51.982681 -0.992279 14,225 132 289 -896
2018-12-16 12:50:20 GMT 51.985397 -0.997009 14,300 133 290 -960
2018-12-16 12:50:17 GMT 51.987957 -1.001482 14,350 133 290 -960
2018-12-16 12:50:14 GMT 51.990692 -1.006241 14,550 132 290 -960
2018-12-16 12:50:11 GMT 51.993622 -1.011276 14,425 132 290 -896
2018-12-16 12:50:08 GMT 51.999481 -1.021500 14,550 132 292 -960
2018-12-16 12:50:04 GMT 51.999481 -1.021500 14,550 132 292 -896
2018-12-16 12:50:01 GMT 52.003143 -1.027908 14,600 132 292 -896
2018-12-16 12:49:58 GMT 52.006298 -1.033343 14,675 132 293 -896
2018-12-16 12:49:55 GMT 52.011093 -1.041739 14,775 133 294 -960
2018-12-16 12:49:52 GMT 52.011093 -1.041739 14,750 133 294 -896
2018-12-16 12:49:49 GMT 52.013901 -1.046600 14,825 133 294 -960
2018-12-16 12:49:46 GMT 52.019287 -1.055943 14,850 133 294 -960
2018-12-16 12:49:43 GMT 52.019287 -1.055943 14,875 132 295 -960
2018-12-16 12:49:40 GMT 52.022964 -1.062378 14,975 132 295 -896
2018-12-16 12:49:36 GMT 52.028923 -1.072736 15,025 132 295 -960
2018-12-16 12:49:33 GMT 52.028923 -1.072736 15,050 132 295 -1024
2018-12-16 12:49:29 GMT 52.032600 -1.079250 15,075 132 295 -960
2018-12-16 12:49:26 GMT 52.035782 -1.084747 15,225 132 295 -896
2018-12-16 12:49:23 GMT 52.038757 -1.089935 15,225 132 295 -1024
2018-12-16 12:49:20 GMT 52.041538 -1.094788 15,275 132 295 -960
2018-12-16 12:49:17 GMT 52.043747 -1.098709 15,350 132 295 -896
2018-12-16 12:49:14 GMT 52.047077 -1.104597 15,375 132 295 -960
2018-12-16 12:49:11 GMT 52.052856 -1.114655 15,500 132 295 -960
2018-12-16 12:49:08 GMT 52.052856 -1.114655 15,475 132 297 -960
2018-12-16 12:49:05 GMT 52.055099 -1.118546 15,525 132 297 -960
2018-12-16 12:49:02 GMT 52.057343 -1.122437 15,625 132 296 -960
2018-12-16 12:48:59 GMT 52.060112 -1.127354 15,575 132 297 -960
2018-12-16 12:48:56 GMT 52.062561 -1.131592 15,650 132 297 -960
2018-12-16 12:48:53 GMT 52.066071 -1.137791 15,700 132 297 -960
2018-12-16 12:48:50 GMT 52.068512 -1.142044 15,750 132 297 -960
2018-12-16 12:48:47 GMT 52.071487 -1.147308 15,800 132 297 -960
2018-12-16 12:48:44 GMT 52.074829 -1.153183 15,875 132 297 -960
2018-12-16 12:48:41 GMT 52.077438 -1.157761 15,950 132 298 -1024
2018-12-16 12:48:38 GMT 52.079899 -1.162040 16,075 132 297 -960
2018-12-16 12:48:35 GMT 52.082703 -1.166992 16,025 132 298 -1024
2018-12-16 12:48:32 GMT 52.085678 -1.172256 16,050 132 298 -960
2018-12-16 12:48:29 GMT 52.091908 -1.183071 16,150 132 299 -896
2018-12-16 12:48:25 GMT 52.091908 -1.183071 16,150 132 299 -896
2018-12-16 12:48:22 GMT 52.094887 -1.188328 16,250 132 298 -832
2018-12-16 12:48:19 GMT 52.097542 -1.192880 16,275 132 299 -832
2018-12-16 12:48:16 GMT 52.101105 -1.199188 16,300 132 300 -832
2018-12-16 12:48:12 GMT 52.105034 -1.206063 16,400 132 300 -896
2018-12-16 12:48:09 GMT 52.106945 -1.209359 16,450 132 300 -832
2018-12-16 12:48:06 GMT 52.113323 -1.220581 16,500 132 299 -896
2018-12-16 12:48:00 GMT 52.115021 -1.223526 16,525 132 299 -896
2018-12-16 12:47:57 GMT 52.118954 -1.230469 16,750 132 299 -896
2018-12-16 12:47:54 GMT 52.122162 -1.236038 16,650 132 299 -832
2018-12-16 12:47:51 GMT 52.124039 -1.239319 16,725 132 298 -832
2018-12-16 12:47:48 GMT 52.126694 -1.243973 16,725 132 298 -832
2018-12-16 12:47:45 GMT 52.129303 -1.248550 16,825 132 298 -896
2018-12-16 12:47:42 GMT 52.132500 -1.254168 16,825 132 298 -832
2018-12-16 12:47:39 GMT 52.136032 -1.260452 16,900 132 298 -896
2018-12-16 12:47:36 GMT 52.138832 -1.265390 17,000 132 298 -896
2018-12-16 12:47:33 GMT 52.141068 -1.269392 16,975 132 298 -896
2018-12-16 12:47:29 GMT 52.145535 -1.277318 17,050 132 298 -832
2018-12-16 12:47:26 GMT 52.147446 -1.280613 17,150 132 299 -896
2018-12-16 12:47:23 GMT 52.151001 -1.286850 17,150 132 300 -896
2018-12-16 12:47:20 GMT 52.153824 -1.291835 17,175 132 300 -896
2018-12-16 12:47:17 GMT 52.155533 -1.294785 17,225 132 300 -896
2018-12-16 12:47:14 GMT 52.163452 -1.308670 19,225 133 304 -832
2018-12-16 12:47:10 GMT 52.163452 -1.308670 17,325 132 301 -896
2018-12-16 12:47:07 GMT 52.165554 -1.312317 17,375 132 301 -896
2018-12-16 12:47:03 GMT 52.170071 -1.320321 17,425 132 302 -832
2018-12-16 12:47:00 GMT 52.172352 -1.324323 17,500 132 302 -832
2018-12-16 12:46:57 GMT 52.175003 -1.328953 17,500 132 302 -832
2018-12-16 12:46:54 GMT 52.177658 -1.333662 17,550 132 304 -896
2018-12-16 12:46:51 GMT 52.183914 -1.344833 17,650 132 304 -896
2018-12-16 12:46:48 GMT 52.183914 -1.344833 17,675 132 304 -896
2018-12-16 12:46:45 GMT 52.187107 -1.350612 17,700 132 304 -832
2018-12-16 12:46:42 GMT 52.189014 -1.353986 17,725 132 304 -832
2018-12-16 12:46:39 GMT 52.195160 -1.364737 17,825 133 304 -832
2018-12-16 12:46:36 GMT 52.195160 -1.364737 17,850 135 303 -832
2018-12-16 12:46:33 GMT 52.197487 -1.368583 18,600 143 303 -896
2018-12-16 12:46:30 GMT 52.201401 -1.374512 17,900 137 302 -832
2018-12-16 12:46:27 GMT 52.203918 -1.378098 18,075 142 302 -896
2018-12-16 12:46:24 GMT 52.207172 -1.382472 17,975 142 302 -896
2018-12-16 12:46:21 GMT 52.211594 -1.387966 18,050 143 302 -896
2018-12-16 12:46:18 GMT 52.218109 -1.395874 18,100 143 303 -896
2018-12-16 12:46:15 GMT 52.218109 -1.395874 18,175 143 304 -896
2018-12-16 12:46:12 GMT 52.220856 -1.399078 18,175 143 304 -896
2018-12-16 12:46:09 GMT 52.224022 -1.402876 18,225 143 304 -896
2018-12-16 12:46:06 GMT 52.231293 -1.411514 18,300 144 305 -832
2018-12-16 12:46:03 GMT 52.231293 -1.411514 18,325 144 306 -896
2018-12-16 12:45:57 GMT 52.238617 -1.420135 18,425 143 306 -832
2018-12-16 12:45:54 GMT 52.241619 -1.423750 18,475 143 307 -832
2018-12-16 12:45:51 GMT 52.244568 -1.427307 18,475 143 307 -832
2018-12-16 12:45:48 GMT 52.248463 -1.431989 18,550 143 308 -832
2018-12-16 12:45:45 GMT 52.251675 -1.435835 18,575 143 308 -832
2018-12-16 12:45:42 GMT 52.255554 -1.440506 18,625 143 309 -832
2018-12-16 12:45:39 GMT 52.257843 -1.443329 18,675 143 310 -768
2018-12-16 12:45:36 GMT 52.264568 -1.451451 18,725 143 313 -960
2018-12-16 12:45:30 GMT 52.272438 -1.461025 18,825 143 314 -896
2018-12-16 12:45:27 GMT 52.272438 -1.461025 18,875 143 315 -832
2018-12-16 12:45:24 GMT 52.275230 -1.464478 18,875 143 316 -832
2018-12-16 12:45:21 GMT 52.278305 -1.468124 18,900 143 316 -832
2018-12-16 12:45:18 GMT 52.283020 -1.473770 19,025 143 318 -896
2018-12-16 12:45:15 GMT 52.287277 -1.478882 19,050 143 318 -896
2018-12-16 12:45:12 GMT 52.289383 -1.481428 19,075 143 318 -960
2018-12-16 12:45:09 GMT 52.294373 -1.487427 19,225 143 319 -832
2018-12-16 12:45:06 GMT 52.297714 -1.491394 19,175 143 319 -896
2018-12-16 12:45:03 GMT 52.301056 -1.495438 19,225 143 320 -832
2018-12-16 12:45:00 GMT 52.304398 -1.499405 19,325 143 321 -832
2018-12-16 12:44:57 GMT 52.308422 -1.504264 19,300 143 321 -832
2018-12-16 12:44:53 GMT 52.312958 -1.509781 19,450 143 321 -832
2018-12-16 12:44:50 GMT 52.316299 -1.513748 19,525 143 321 -768
2018-12-16 12:44:46 GMT 52.325600 -1.524981 19,475 143 321 -768
2018-12-16 12:44:43 GMT 52.325600 -1.524981 19,500 143 321 -832
2018-12-16 12:44:40 GMT 52.328705 -1.528778 19,550 143 321 -832
2018-12-16 12:44:37 GMT 52.331085 -1.531601 19,700 143 321 -832
2018-12-16 12:44:34 GMT 52.335846 -1.537399 19,650 143 321 -832
2018-12-16 12:44:31 GMT 52.338272 -1.540222 19,725 143 321 -960
2018-12-16 12:44:28 GMT 52.343288 -1.546247 19,725 143 321 -896
2018-12-16 12:44:25 GMT 52.346130 -1.549700 19,750 143 321 -896
2018-12-16 12:44:22 GMT 52.349995 -1.554252 19,850 143 321 -896
2018-12-16 12:44:19 GMT 52.353058 -1.557999 19,900 143 319 -832
2018-12-16 12:44:16 GMT 52.356400 -1.561966 19,925 143 320 -448
2018-12-16 12:44:13 GMT 52.363819 -1.570888 19,950 143 320 -384
2018-12-16 12:44:10 GMT 52.363819 -1.570888 19,950 143 320 -192
2018-12-16 12:44:07 GMT 52.368568 -1.576617 19,975 143 320 0
2018-12-16 12:44:04 GMT 52.371452 -1.580069 19,975 143 320 -64
2018-12-16 12:44:01 GMT 52.375271 -1.584621 19,975 143 321 -64
2018-12-16 12:43:58 GMT 52.378624 -1.588702 20,000 143 320 0
2018-12-16 12:43:55 GMT 52.382439 -1.593253 20,000 143 320 0
2018-12-16 12:43:52 GMT 52.386257 -1.597883 20,000 143 319 64
2018-12-16 12:43:49 GMT 52.388634 -1.600708 20,000 143 320 0
2018-12-16 12:43:46 GMT 52.393379 -1.606515 20,000 143 319 0
2018-12-16 12:43:43 GMT 52.395538 -1.609039 20,000 143 319 64
2018-12-16 12:43:40 GMT 52.400757 -1.615372 20,000 143 319 0
2018-12-16 12:43:37 GMT 52.402679 -1.617661 20,000 143 319 64
2018-12-16 12:43:34 GMT 52.406693 -1.622602 20,000 143 319 64
2018-12-16 12:43:31 GMT 52.410931 -1.627781 20,000 143 319 0
2018-12-16 12:43:28 GMT 52.414490 -1.632080 20,000 143 319 64
2018-12-16 12:43:25 GMT 52.417076 -1.635236 19,975 143 319 64
2018-12-16 12:43:22 GMT 52.422043 -1.641312 19,975 143 319 0
2018-12-16 12:43:19 GMT 52.427719 -1.648254 19,975 143 319 0
2018-12-16 12:43:13 GMT 52.431740 -1.653128 19,975 143 319 -64
2018-12-16 12:43:10 GMT 52.435730 -1.658020 20,000 143 319 0
2018-12-16 12:43:07 GMT 52.439529 -1.662674 20,000 143 319 -128
2018-12-16 12:43:04 GMT 52.441654 -1.665213 20,000 143 318 64
2018-12-16 12:43:01 GMT 52.445423 -1.669843 20,000 143 318 0
2018-12-16 12:42:58 GMT 52.449661 -1.675023 20,000 143 318 0
2018-12-16 12:42:55 GMT 52.452499 -1.678476 20,000 143 317 0
2018-12-16 12:42:52 GMT 52.456738 -1.683655 20,000 143 318 64
2018-12-16 12:42:49 GMT 52.459576 -1.687029 20,000 143 318 128
2018-12-16 12:42:46 GMT 52.464066 -1.692429 19,975 143 318 128
2018-12-16 12:42:43 GMT 52.466904 -1.695862 19,975 143 318 64
2018-12-16 12:42:40 GMT 52.473778 -1.704215 19,975 143 318 -128
2018-12-16 12:42:37 GMT 52.473778 -1.704215 20,000 143 318 -64
2018-12-16 12:42:34 GMT 52.477547 -1.708845 19,975 143 318 0
2018-12-16 12:42:31 GMT 52.482468 -1.714859 20,000 143 318 -64
2018-12-16 12:42:28 GMT 52.485809 -1.718903 20,000 143 318 -64
2018-12-16 12:42:25 GMT 52.488857 -1.722578 20,000 143 318 0
2018-12-16 12:42:22 GMT 52.491486 -1.725769 20,000 143 317 64
2018-12-16 12:42:19 GMT 52.495697 -1.730881 20,000 143 317 64
2018-12-16 12:42:16 GMT 52.499241 -1.735212 20,000 143 317 64
2018-12-16 12:42:13 GMT 52.503010 -1.739764 20,000 143 315 0
2018-12-16 12:42:10 GMT 52.506042 -1.743546 20,000 143 315 0
2018-12-16 12:42:07 GMT 52.510506 -1.748945 20,000 143 315 64
2018-12-16 12:42:04 GMT 52.513298 -1.752398 19,975 143 315 64
2018-12-16 12:42:01 GMT 52.516090 -1.755851 20,000 143 316 64
2018-12-16 12:41:58 GMT 52.525028 -1.766680 20,000 143 317 -64
2018-12-16 12:41:54 GMT 52.525028 -1.766680 20,000 143 316 -64
2018-12-16 12:41:51 GMT 52.527870 -1.770054 20,000 143 315 -64
2018-12-16 12:41:48 GMT 52.532318 -1.775436 20,000 143 315 0
2018-12-16 12:41:45 GMT 52.535110 -1.778870 20,000 143 315 128
2018-12-16 12:41:42 GMT 52.537903 -1.782303 20,000 143 315 64
2018-12-16 12:41:39 GMT 52.542572 -1.788025 20,000 143 315 0
2018-12-16 12:41:36 GMT 52.544952 -1.790848 20,000 143 315 0
2018-12-16 12:41:33 GMT 52.548447 -1.795166 20,000 143 315 64
2018-12-16 12:41:30 GMT 52.553375 -1.801071 20,000 143 316 -64
2018-12-16 12:41:27 GMT 52.556870 -1.805368 20,000 143 316 0
2018-12-16 12:41:24 GMT 52.559921 -1.809082 20,000 143 316 0
2018-12-16 12:41:21 GMT 52.564178 -1.814270 20,000 143 317 0
2018-12-16 12:41:18 GMT 52.566738 -1.817453 20,000 143 317 0
2018-12-16 12:41:15 GMT 52.570045 -1.821455 20,000 143 317 0
2018-12-16 12:41:12 GMT 52.574478 -1.826935 20,000 143 318 -64
2018-12-16 12:41:09 GMT 52.576859 -1.829834 20,000 143 318 -64
2018-12-16 12:41:06 GMT 52.581310 -1.835345 20,000 143 318 0
2018-12-16 12:41:03 GMT 52.585083 -1.839975 20,000 143 317 64
2018-12-16 12:41:00 GMT 52.588623 -1.844254 20,000 144 317 64
2018-12-16 12:40:57 GMT 52.591507 -1.847610 20,000 145 317 64
2018-12-16 12:40:54 GMT 52.594391 -1.850891 20,000 146 316 64
2018-12-16 12:40:51 GMT 52.599979 -1.857003 20,000 147 315 0
2018-12-16 12:40:48 GMT 52.602448 -1.859593 20,000 147 315 0
2018-12-16 12:40:45 GMT 52.605892 -1.863203 20,000 147 316 0
2018-12-16 12:40:42 GMT 52.610596 -1.868057 20,000 147 316 0
2018-12-16 12:40:39 GMT 52.614830 -1.872384 20,000 147 316 64
2018-12-16 12:40:36 GMT 52.616547 -1.874161 20,000 148 315 64
2018-12-16 12:40:33 GMT 52.620743 -1.878505 20,000 148 315 64
2018-12-16 12:40:30 GMT 52.629913 -1.887894 20,000 148 315 64
2018-12-16 12:40:27 GMT 52.629913 -1.887894 20,000 148 315 0
2018-12-16 12:40:24 GMT 52.632145 -1.890198 19,975 148 315 64
2018-12-16 12:40:21 GMT 52.635864 -1.893997 19,975 147 315 64
2018-12-16 12:40:18 GMT 52.639801 -1.898041 19,975 147 314 64
2018-12-16 12:40:15 GMT 52.644016 -1.902361 19,975 148 315 -64
2018-12-16 12:40:12 GMT 52.646713 -1.905136 19,975 148 315 -64
2018-12-16 12:40:09 GMT 52.651882 -1.910522 19,975 148 315 0
2018-12-16 12:40:06 GMT 52.654633 -1.913300 19,975 148 315 0
2018-12-16 12:40:03 GMT 52.658310 -1.917114 20,000 148 315 -64
2018-12-16 12:40:00 GMT 52.662777 -1.921666 20,000 147 314 -64
2018-12-16 12:39:57 GMT 52.666222 -1.925197 20,000 147 315 0
2018-12-16 12:39:53 GMT 52.670425 -1.929550 20,000 147 315 64
2018-12-16 12:39:50 GMT 52.678558 -1.937988 20,000 147 315 0
2018-12-16 12:39:47 GMT 52.678558 -1.937988 20,000 147 315 0
2018-12-16 12:39:44 GMT 52.681538 -1.941127 20,000 147 315 64
2018-12-16 12:39:41 GMT 52.684982 -1.944659 20,000 147 315 64
2018-12-16 12:39:38 GMT 52.688938 -1.948818 19,975 147 315 0
2018-12-16 12:39:35 GMT 52.697319 -1.957528 20,000 147 316 0
2018-12-16 12:39:32 GMT 52.697319 -1.957528 20,000 147 316 -64
2018-12-16 12:39:29 GMT 52.700546 -1.960831 20,000 147 316 -64
2018-12-16 12:39:26 GMT 52.704254 -1.964669 20,000 147 316 0
2018-12-16 12:39:23 GMT 52.706955 -1.967468 20,000 147 316 0
2018-12-16 12:39:20 GMT 52.711143 -1.971810 20,000 148 315 0
2018-12-16 12:39:17 GMT 52.715378 -1.976166 20,000 148 317 64
2018-12-16 12:39:14 GMT 52.718594 -1.979501 20,000 147 316 64
2018-12-16 12:39:11 GMT 52.722084 -1.983032 20,000 147 316 64
2018-12-16 12:39:08 GMT 52.725769 -1.986923 20,000 147 316 0
2018-12-16 12:39:05 GMT 52.729488 -1.990723 19,975 147 316 0
2018-12-16 12:39:02 GMT 52.732727 -1.994095 19,975 147 316 0
2018-12-16 12:38:59 GMT 52.738174 -1.999741 19,975 147 318 64
2018-12-16 12:38:56 GMT 52.740143 -2.001801 19,975 147 318 64
2018-12-16 12:38:53 GMT 52.745132 -2.006989 19,975 147 318 0
2018-12-16 12:38:50 GMT 52.748108 -2.010117 19,975 147 318 0
2018-12-16 12:38:47 GMT 52.753098 -2.015228 19,975 147 318 -64
2018-12-16 12:38:44 GMT 52.756577 -2.018890 20,000 147 316 -64
2018-12-16 12:38:41 GMT 52.763237 -2.025800 20,000 147 316 0
2018-12-16 12:38:38 GMT 52.763237 -2.025800 20,000 147 316 64
2018-12-16 12:38:35 GMT 52.767929 -2.030716 20,000 147 316 64
2018-12-16 12:38:32 GMT 52.771664 -2.034589 20,000 147 316 64
2018-12-16 12:38:29 GMT 52.774132 -2.037179 20,000 147 317 0
2018-12-16 12:38:26 GMT 52.778599 -2.041809 19,975 147 316 64
2018-12-16 12:38:23 GMT 52.781799 -2.045135 19,975 147 317 0
2018-12-16 12:38:20 GMT 52.785488 -2.049029 19,975 147 318 -64
2018-12-16 12:38:17 GMT 52.788757 -2.052383 19,975 147 317 -64
2018-12-16 12:38:14 GMT 52.792984 -2.056798 19,975 147 318 -64
2018-12-16 12:38:11 GMT 52.797180 -2.061157 20,000 147 318 0
2018-12-16 12:38:08 GMT 52.800201 -2.064209 20,000 147 317 0
2018-12-16 12:38:05 GMT 52.804688 -2.068863 20,000 147 318 0
2018-12-16 12:38:02 GMT 52.808907 -2.073277 20,000 147 317 0
2018-12-16 12:37:59 GMT 52.812862 -2.077436 20,000 147 317 0
2018-12-16 12:37:56 GMT 52.815125 -2.079697 20,000 147 317 0
2018-12-16 12:37:53 GMT 52.819107 -2.083817 20,000 147 317 0
2018-12-16 12:37:50 GMT 52.823292 -2.088187 20,000 147 316 0
2018-12-16 12:37:47 GMT 52.827248 -2.092346 20,000 147 315 64
2018-12-16 12:37:44 GMT 52.830963 -2.096176 20,000 147 315 0
2018-12-16 12:37:41 GMT 52.834183 -2.099487 20,000 147 315 64
2018-12-16 12:37:38 GMT 52.837830 -2.103348 20,000 147 313 0
2018-12-16 12:37:35 GMT 52.840805 -2.106476 20,000 147 313 0
2018-12-16 12:37:32 GMT 52.845200 -2.111053 20,000 147 314 0
2018-12-16 12:37:29 GMT 52.849873 -2.115967 20,000 147 314 0
2018-12-16 12:37:26 GMT 52.852066 -2.118225 20,000 147 314 0
2018-12-16 12:37:23 GMT 52.857227 -2.123657 19,975 147 314 0
2018-12-16 12:37:20 GMT 52.859436 -2.125931 19,975 147 314 0
2018-12-16 12:37:17 GMT 52.863373 -2.130051 20,000 147 315 0
2018-12-16 12:37:14 GMT 52.866302 -2.133102 20,000 147 314 0
2018-12-16 12:37:11 GMT 52.871006 -2.138018 20,000 147 314 0
2018-12-16 12:37:08 GMT 52.875427 -2.142648 20,000 147 315 -64
2018-12-16 12:37:05 GMT 52.882050 -2.149506 20,000 147 315 64
2018-12-16 12:37:02 GMT 52.882050 -2.149506 20,000 147 314 64
2018-12-16 12:36:59 GMT 52.886227 -2.153870 20,000 147 314 64
2018-12-16 12:36:56 GMT 52.893860 -2.161789 19,975 147 315 -64
2018-12-16 12:36:53 GMT 52.893860 -2.161789 19,975 147 314 0
2018-12-16 12:36:47 GMT 52.900772 -2.168961 19,975 147 315 -64
2018-12-16 12:36:43 GMT 52.906219 -2.174606 20,000 147 315 -64
2018-12-16 12:36:40 GMT 52.908691 -2.177200 20,000 147 315 0
2018-12-16 12:36:37 GMT 52.913132 -2.181778 20,000 147 315 0
2018-12-16 12:36:34 GMT 52.915558 -2.184372 20,000 147 315 0
2018-12-16 12:36:31 GMT 52.920502 -2.189484 20,000 147 315 0
2018-12-16 12:36:28 GMT 52.924683 -2.193891 20,000 147 315 64
2018-12-16 12:36:25 GMT 52.927147 -2.196481 20,000 147 315 64
2018-12-16 12:36:22 GMT 52.931568 -2.201111 20,000 147 315 64
2018-12-16 12:36:16 GMT 52.938675 -2.208633 19,975 147 315 64
2018-12-16 12:36:13 GMT 52.943115 -2.213211 19,975 147 315 0
2018-12-16 12:36:10 GMT 52.946327 -2.216570 19,975 147 315 0
2018-12-16 12:36:07 GMT 52.954243 -2.224810 20,000 148 315 -64
2018-12-16 12:36:04 GMT 52.954243 -2.224810 20,000 148 315 0
2018-12-16 12:36:01 GMT 52.958450 -2.229156 20,000 148 315 -64
2018-12-16 12:35:58 GMT 52.960201 -2.230931 20,000 148 315 64
2018-12-16 12:35:54 GMT 52.966873 -2.237854 20,000 148 315 0
2018-12-16 12:35:51 GMT 52.969849 -2.240906 20,000 148 315 0
2018-12-16 12:35:48 GMT 52.972824 -2.243958 20,000 148 315 64
2018-12-16 12:35:45 GMT 52.977768 -2.249146 20,000 147 316 128
2018-12-16 12:35:42 GMT 52.985477 -2.257063 19,975 147 316 64
2018-12-16 12:35:39 GMT 52.985477 -2.257063 19,975 148 317 64
2018-12-16 12:35:36 GMT 52.988457 -2.260202 20,000 147 319 0
2018-12-16 12:35:33 GMT 52.992188 -2.264023 19,975 147 319 -64
2018-12-16 12:35:30 GMT 52.994659 -2.266693 19,975 147 319 -64
2018-12-16 12:35:27 GMT 52.999146 -2.271347 19,975 147 320 -64
2018-12-16 12:35:24 GMT 53.003128 -2.275620 20,000 147 320 0
2018-12-16 12:35:20 GMT 53.008118 -2.280884 20,000 147 320 0
2018-12-16 12:35:17 GMT 53.017365 -2.290414 20,000 147 319 128
2018-12-16 12:35:13 GMT 53.017365 -2.290414 20,000 150 316 192
2018-12-16 12:35:10 GMT 53.020905 -2.293788 19,975 151 315 128
2018-12-16 12:35:07 GMT 53.024536 -2.296849 19,975 156 311 0
2018-12-16 12:35:04 GMT 53.028488 -2.299652 19,975 158 311 0
2018-12-16 12:35:01 GMT 53.037521 -2.303990 19,975 166 306 -64
2018-12-16 12:34:58 GMT 53.037521 -2.303990 19,975 168 304 -64
2018-12-16 12:34:55 GMT 53.041672 -2.305222 20,000 171 303 -128
2018-12-16 12:34:52 GMT 53.045517 -2.305984 20,000 175 299 0
2018-12-16 12:34:48 GMT 53.050232 -2.306658 20,000 175 299 0
2018-12-16 12:34:45 GMT 53.059635 -2.307835 20,000 175 299 0
2018-12-16 12:34:42 GMT 53.059635 -2.307835 20,000 175 299 0
2018-12-16 12:34:39 GMT 53.062382 -2.308228 20,000 175 299 0
2018-12-16 12:34:36 GMT 53.067078 -2.308807 20,000 175 299 0
2018-12-16 12:34:33 GMT 53.071228 -2.309326 20,000 175 300 0
2018-12-16 12:34:30 GMT 53.074860 -2.309799 20,000 175 300 0
2018-12-16 12:34:27 GMT 53.080116 -2.310503 20,000 175 301 0
2018-12-16 12:34:24 GMT 53.083424 -2.310974 20,000 175 301 0
2018-12-16 12:34:21 GMT 53.087334 -2.311523 20,000 175 301 0
2018-12-16 12:34:18 GMT 53.093170 -2.312241 20,000 175 302 64
2018-12-16 12:34:15 GMT 53.095963 -2.312622 20,000 175 302 0
2018-12-16 12:34:12 GMT 53.101208 -2.313349 20,000 175 302 64
2018-12-16 12:34:09 GMT 53.104294 -2.313799 20,000 175 302 0
2018-12-16 12:34:06 GMT 53.108734 -2.314427 20,000 175 302 0
2018-12-16 12:34:03 GMT 53.112076 -2.314898 20,000 175 304 -64
2018-12-16 12:34:00 GMT 53.115685 -2.315369 20,000 175 302 0
2018-12-16 12:33:57 GMT 53.120956 -2.316075 20,000 175 304 64
2018-12-16 12:33:54 GMT 53.125694 -2.316742 20,000 175 304 0
2018-12-16 12:33:51 GMT 53.129333 -2.317252 20,000 175 304 0
2018-12-16 12:33:48 GMT 53.134117 -2.317873 20,000 175 304 0
2018-12-16 12:33:45 GMT 53.138306 -2.318508 20,000 175 303 64
2018-12-16 12:33:42 GMT 53.141941 -2.318923 20,000 176 303 64
2018-12-16 12:33:39 GMT 53.146133 -2.319449 20,000 175 303 0
2018-12-16 12:33:36 GMT 53.150318 -2.319973 20,000 176 303 64
2018-12-16 12:33:33 GMT 53.155060 -2.320469 19,975 176 303 0
2018-12-16 12:33:30 GMT 53.159817 -2.320862 19,975 177 304 0
2018-12-16 12:33:27 GMT 53.162933 -2.321097 19,975 177 304 0
2018-12-16 12:33:24 GMT 53.168518 -2.321411 19,975 178 304 -64
2018-12-16 12:33:21 GMT 53.171356 -2.321568 19,975 178 304 -64
2018-12-16 12:33:18 GMT 53.175797 -2.321725 19,975 178 303 -64
2018-12-16 12:33:15 GMT 53.180576 -2.321993 20,000 176 303 0
2018-12-16 12:33:12 GMT 53.184769 -2.322431 20,000 175 303 -64
2018-12-16 12:33:08 GMT 53.190399 -2.323138 20,000 174 304 -64
2018-12-16 12:33:02 GMT 53.197384 -2.324174 20,000 174 304 0
2018-12-16 12:32:59 GMT 53.202164 -2.324942 20,000 174 304 0
2018-12-16 12:32:56 GMT 53.207199 -2.325727 20,000 174 304 0
2018-12-16 12:32:53 GMT 53.215576 -2.327140 20,000 174 304 0
2018-12-16 12:32:50 GMT 53.215576 -2.327140 20,000 174 303 0
2018-12-16 12:32:47 GMT 53.220287 -2.327890 20,000 174 303 0
2018-12-16 12:32:44 GMT 53.224197 -2.328536 20,000 174 303 -64
2018-12-16 12:32:41 GMT 53.227295 -2.329023 20,000 174 303 -64
2018-12-16 12:32:38 GMT 53.230900 -2.329586 19,975 176 305 64
2018-12-16 12:32:35 GMT 53.235928 -2.330313 20,000 175 304 0
2018-12-16 12:32:32 GMT 53.239838 -2.330879 20,000 175 304 0
2018-12-16 12:32:29 GMT 53.243797 -2.331444 20,000 175 304 64
2018-12-16 12:32:26 GMT 53.247986 -2.332005 20,000 175 304 0
2018-12-16 12:32:23 GMT 53.252472 -2.332554 20,000 175 304 64
2018-12-16 12:32:20 GMT 53.256691 -2.333060 20,000 175 304 64
2018-12-16 12:32:17 GMT 53.264832 -2.334045 19,975 176 305 64
2018-12-16 12:32:14 GMT 53.268768 -2.334438 19,975 176 305 64
2018-12-16 12:32:08 GMT 53.273849 -2.335066 19,975 176 305 0
2018-12-16 12:32:05 GMT 53.278057 -2.335483 19,975 176 306 -64
2018-12-16 12:32:02 GMT 53.282574 -2.336049 19,975 176 306 -64
2018-12-16 12:31:59 GMT 53.287090 -2.336533 19,975 175 306 -64
2018-12-16 12:31:56 GMT 53.289371 -2.336857 20,000 175 306 -64
2018-12-16 12:31:53 GMT 53.295868 -2.337577 20,000 175 305 0
2018-12-16 12:31:50 GMT 53.297844 -2.337826 20,000 176 305 0
2018-12-16 12:31:47 GMT 53.303192 -2.338440 20,000 176 305 0
2018-12-16 12:31:44 GMT 53.308823 -2.339068 20,000 176 304 0
2018-12-16 12:31:41 GMT 53.312164 -2.339382 20,000 177 304 64
2018-12-16 12:31:38 GMT 53.316650 -2.339696 20,000 177 303 64
2018-12-16 12:31:35 GMT 53.320282 -2.339926 20,000 178 303 64
2018-12-16 12:31:32 GMT 53.325027 -2.340166 19,975 178 303 64
2018-12-16 12:31:26 GMT 53.332619 -2.340411 19,975 178 303 0
2018-12-16 12:31:23 GMT 53.336529 -2.340492 19,975 178 304 -128
2018-12-16 12:31:20 GMT 53.346909 -2.341108 20,000 177 304 -128
2018-12-16 12:31:16 GMT 53.346909 -2.341108 20,000 176 304 -192
2018-12-16 12:31:13 GMT 53.351395 -2.341500 20,000 176 304 -192
2018-12-16 12:31:10 GMT 53.355614 -2.342107 20,025 175 305 -128
2018-12-16 12:31:07 GMT 53.359268 -2.342678 20,025 174 305 -128
2018-12-16 12:31:04 GMT 53.364040 -2.343481 20,025 172 304 -64
2018-12-16 12:31:00 GMT 53.369339 -2.344639 20,025 172 304 -64
2018-12-16 12:30:57 GMT 53.373825 -2.345660 20,050 172 303 0
2018-12-16 12:30:54 GMT 53.377716 -2.346523 20,050 172 303 -64
2018-12-16 12:30:51 GMT 53.385174 -2.347924 20,100 175 302 -896
2018-12-16 12:30:45 GMT 53.390156 -2.348651 20,075 175 302 -896
2018-12-16 12:30:42 GMT 53.395477 -2.349348 20,125 175 302 -1088
2018-12-16 12:30:39 GMT 53.399414 -2.349819 20,175 175 304 -1344
2018-12-16 12:30:36 GMT 53.403610 -2.350347 20,250 175 304 -1664
2018-12-16 12:30:33 GMT 53.406963 -2.350751 20,325 175 305 -1728
2018-12-16 12:30:30 GMT 53.411179 -2.351231 20,400 175 305 -1792
2018-12-16 12:30:27 GMT 53.414017 -2.351545 20,500 175 305 -1728
2018-12-16 12:30:24 GMT 53.419346 -2.352205 20,575 176 314 -768
2018-12-16 12:30:21 GMT 53.424179 -2.352801 20,675 176 306 -1728
2018-12-16 12:30:18 GMT 53.427567 -2.353193 20,800 176 306 -1728
2018-12-16 12:30:15 GMT 53.432053 -2.353742 20,900 176 306 -1792
2018-12-16 12:30:12 GMT 53.436291 -2.354225 20,975 176 306 -1920
2018-12-16 12:30:09 GMT 53.440247 -2.354629 21,050 176 306 -1856
2018-12-16 12:30:06 GMT 53.444763 -2.355113 21,200 176 305 -2240
2018-12-16 12:30:03 GMT 53.448719 -2.355517 21,300 176 304 -2432
2018-12-16 12:30:00 GMT 53.452972 -2.356018 21,375 176 304 -2432
2018-12-16 12:29:57 GMT 53.457146 -2.356487 21,450 176 303 -2496
2018-12-16 12:29:54 GMT 53.466888 -2.357509 21,700 176 301 -2112
2018-12-16 12:29:50 GMT 53.466888 -2.357509 21,900 176 302 -1024
2018-12-16 12:29:47 GMT 53.472473 -2.358058 21,850 176 301 -1472
2018-12-16 12:29:44 GMT 53.476650 -2.358587 22,000 176 304 -576
2018-12-16 12:29:38 GMT 53.483688 -2.359314 22,050 176 306 -640
2018-12-16 12:29:35 GMT 53.487915 -2.359799 22,100 176 308 -640
2018-12-16 12:29:32 GMT 53.492798 -2.360334 22,125 176 310 -640
2018-12-16 12:29:29 GMT 53.497375 -2.360805 22,150 176 312 -704
2018-12-16 12:29:26 GMT 53.502300 -2.361334 22,200 176 315 -768
2018-12-16 12:29:23 GMT 53.505188 -2.361657 22,225 176 316 -768
2018-12-16 12:29:20 GMT 53.508724 -2.362061 22,325 175 320 -576
2018-12-16 12:29:17 GMT 53.513123 -2.362610 22,350 175 320 -576
2018-12-16 12:29:14 GMT 53.518734 -2.363272 22,350 175 323 -512
2018-12-16 12:29:11 GMT 53.523834 -2.363944 22,375 175 328 -512
2018-12-16 12:29:08 GMT 53.528046 -2.364493 22,400 175 328 -512
2018-12-16 12:29:05 GMT 53.532001 -2.365049 22,400 175 330 -512
2018-12-16 12:29:02 GMT 53.537796 -2.365827 22,500 181 337 -640
2018-12-16 12:28:59 GMT 53.542099 -2.366455 22,475 175 335 -576
2018-12-16 12:28:56 GMT 53.546448 -2.366847 22,500 181 337 -640
2018-12-16 12:28:53 GMT 53.550484 -2.367069 22,575 181 337 -640
2018-12-16 12:28:50 GMT 53.555145 -2.366847 22,575 183 337 -768
2018-12-16 12:28:46 GMT 53.560776 -2.366141 22,650 188 339 -896
2018-12-16 12:28:43 GMT 53.566032 -2.364969 22,650 192 339 -896
2018-12-16 12:28:40 GMT 53.571259 -2.363395 22,700 192 339 -896
2018-12-16 12:28:37 GMT 53.575562 -2.361668 22,750 194 340 -832
2018-12-16 12:28:33 GMT 53.582245 -2.358608 22,825 197 343 -1088
2018-12-16 12:28:30 GMT 53.587097 -2.356253 22,850 197 344 -1216
2018-12-16 12:28:27 GMT 53.591400 -2.354135 22,925 197 345 -1856
2018-12-16 12:28:23 GMT 53.597534 -2.351153 23,075 197 346 -1984
2018-12-16 12:28:19 GMT 53.609848 -2.345032 23,275 197 348 -1984
2018-12-16 12:28:15 GMT 53.609848 -2.345032 23,350 197 348 -2048
2018-12-16 12:28:12 GMT 53.614151 -2.342913 23,450 197 348 -2048
2018-12-16 12:28:09 GMT 53.618500 -2.340794 23,600 197 349 -2112
2018-12-16 12:28:06 GMT 53.624039 -2.337969 23,725 197 349 -2176
2018-12-16 12:28:03 GMT 53.628689 -2.335645 23,800 197 349 -2112
2018-12-16 12:28:00 GMT 53.632095 -2.333888 23,950 198 351 -2048
2018-12-16 12:27:57 GMT 53.638275 -2.330750 24,025 198 351 -2048
2018-12-16 12:27:54 GMT 53.641983 -2.328788 24,100 198 351 -2048
2018-12-16 12:27:51 GMT 53.646973 -2.326198 24,225 198 352 -2240
2018-12-16 12:27:48 GMT 53.650681 -2.324236 24,375 198 352 -2176
2018-12-16 12:27:45 GMT 53.655029 -2.321882 24,425 198 352 -2240
2018-12-16 12:27:42 GMT 53.660297 -2.319085 24,525 198 352 -2304
2018-12-16 12:27:39 GMT 53.671188 -2.313171 24,750 198 352 -2368
2018-12-16 12:27:36 GMT 53.671188 -2.313171 24,850 198 353 -2368
2018-12-16 12:27:33 GMT 53.674896 -2.311131 25,000 198 353 -2368
2018-12-16 12:27:30 GMT 53.678967 -2.308987 25,225 198 354 -2368
2018-12-16 12:27:27 GMT 53.685158 -2.305675 25,225 198 353 -2368
2018-12-16 12:27:24 GMT 53.689224 -2.303519 25,325 198 354 -2368
2018-12-16 12:27:21 GMT 53.692654 -2.301636 25,400 198 354 -2304
2018-12-16 12:27:18 GMT 53.698284 -2.298566 25,600 198 356 -1792
2018-12-16 12:27:15 GMT 53.702957 -2.296064 25,675 198 356 -1728
2018-12-16 12:27:12 GMT 53.707039 -2.293800 25,800 199 357 -1600
2018-12-16 12:27:09 GMT 53.712341 -2.290885 25,850 199 357 -1536
2018-12-16 12:27:06 GMT 53.717094 -2.288307 25,975 199 359 -1472
2018-12-16 12:27:03 GMT 53.721817 -2.285627 26,025 199 360 -1536
2018-12-16 12:27:00 GMT 53.725891 -2.283379 26,100 199 360 -1920
2018-12-16 12:26:57 GMT 53.730312 -2.280875 26,150 199 360 -1920
2018-12-16 12:26:54 GMT 53.736282 -2.277544 26,350 199 358 -2240
2018-12-16 12:26:51 GMT 53.741020 -2.274816 26,450 199 358 -2304
2018-12-16 12:26:48 GMT 53.746655 -2.271666 26,825 199 354 -1344
2018-12-16 12:26:45 GMT 53.754410 -2.267343 26,775 199 354 -1536
2018-12-16 12:26:42 GMT 53.754410 -2.267343 26,875 198 354 -1152
2018-12-16 12:26:39 GMT 53.758163 -2.265224 26,875 198 354 -1152
2018-12-16 12:26:36 GMT 53.764984 -2.261536 26,950 198 353 -320
2018-12-16 12:26:33 GMT 53.767788 -2.260033 26,975 198 354 0
2018-12-16 12:26:30 GMT 53.772163 -2.257690 26,975 198 356 0
2018-12-16 12:26:27 GMT 53.783157 -2.251883 26,975 198 356 -64
2018-12-16 12:26:24 GMT 53.783157 -2.251883 26,975 198 358 -64
2018-12-16 12:26:21 GMT 53.788506 -2.249128 26,975 198 358 -128
2018-12-16 12:26:18 GMT 53.791019 -2.247754 26,975 198 358 -128
2018-12-16 12:26:15 GMT 53.795441 -2.245492 27,000 198 358 -64
2018-12-16 12:26:12 GMT 53.802704 -2.241603 27,000 198 358 -64
2018-12-16 12:26:09 GMT 53.807404 -2.239111 27,000 198 358 -64
2018-12-16 12:26:06 GMT 53.811222 -2.237091 27,000 198 358 -64
2018-12-16 12:26:03 GMT 53.814388 -2.235395 27,000 198 359 64
2018-12-16 12:25:59 GMT 53.821323 -2.231598 27,000 197 378 64
2018-12-16 12:25:56 GMT 53.827049 -2.228528 26,975 198 364 256
2018-12-16 12:25:53 GMT 53.831818 -2.225987 26,975 198 363 320
2018-12-16 12:25:47 GMT 53.845322 -2.218924 26,925 197 366 -128
2018-12-16 12:25:44 GMT 53.845322 -2.218924 26,925 197 366 -128
2018-12-16 12:25:41 GMT 53.851181 -2.215942 26,950 197 367 -192
2018-12-16 12:25:38 GMT 53.856400 -2.213353 26,950 197 367 -256
2018-12-16 12:25:35 GMT 53.867176 -2.208090 26,975 196 368 -256
2018-12-16 12:25:32 GMT 53.870438 -2.206556 27,000 196 368 -256
2018-12-16 12:25:29 GMT 53.870438 -2.206556 27,000 196 369 -192
2018-12-16 12:25:26 GMT 53.875351 -2.204250 27,000 196 369 0
2018-12-16 12:25:23 GMT 53.881256 -2.201425 27,000 196 369 64
2018-12-16 12:25:20 GMT 53.888870 -2.197750 26,975 196 371 128
2018-12-16 12:25:14 GMT 53.894131 -2.195165 27,000 197 378 0
2018-12-16 12:25:11 GMT 53.899483 -2.192580 26,975 197 378 -64
2018-12-16 12:25:08 GMT 53.904465 -2.190125 26,975 197 378 64
2018-12-16 12:25:05 GMT 53.909180 -2.187770 27,000 197 377 0
2018-12-16 12:25:02 GMT 53.913849 -2.185416 27,000 197 377 0
2018-12-16 12:24:59 GMT 53.921551 -2.181513 27,000 197 377 64
2018-12-16 12:24:56 GMT 53.926575 -2.179060 27,000 197 377 128
2018-12-16 12:24:53 GMT 53.930256 -2.177151 27,000 197 376 0
2018-12-16 12:24:50 GMT 53.934586 -2.174979 26,975 197 377 0
2018-12-16 12:24:47 GMT 53.940582 -2.171997 26,975 197 376 0
2018-12-16 12:24:43 GMT 53.946579 -2.169094 26,975 197 376 64
2018-12-16 12:24:40 GMT 53.950607 -2.167132 26,975 196 376 0
2018-12-16 12:24:37 GMT 53.956604 -2.164228 27,000 196 375 0
2018-12-16 12:24:33 GMT 53.963928 -2.160697 27,000 196 375 0
2018-12-16 12:24:29 GMT 53.969925 -2.157793 27,000 196 375 64
2018-12-16 12:24:26 GMT 53.979904 -2.153006 26,975 196 374 64
2018-12-16 12:24:23 GMT 53.979904 -2.153006 26,975 196 373 0
2018-12-16 12:24:20 GMT 53.984257 -2.150978 26,975 196 372 -64
2018-12-16 12:24:17 GMT 53.991516 -2.147423 26,975 196 372 0
2018-12-16 12:24:14 GMT 53.994171 -2.146131 26,975 196 372 -64
2018-12-16 12:24:11 GMT 54.001434 -2.142657 27,000 196 372 -64
2018-12-16 12:24:08 GMT 54.006363 -2.140215 27,000 196 372 0
2018-12-16 12:24:05 GMT 54.009018 -2.138960 27,000 196 371 0
2018-12-16 12:24:02 GMT 54.013954 -2.136518 27,000 196 371 0
2018-12-16 12:23:59 GMT 54.019592 -2.133859 27,000 196 371 0
2018-12-16 12:23:56 GMT 54.024525 -2.131509 27,000 196 371 0
2018-12-16 12:23:53 GMT 54.030483 -2.128682 27,000 196 370 -64
2018-12-16 12:23:50 GMT 54.034439 -2.126743 27,000 196 371 -64
2018-12-16 12:23:47 GMT 54.041050 -2.123673 27,000 196 371 -64
2018-12-16 12:23:44 GMT 54.045658 -2.121492 27,000 196 371 0
2018-12-16 12:23:41 GMT 54.048615 -2.120047 27,000 196 371 -64
2018-12-16 12:23:38 GMT 54.055252 -2.116908 26,975 196 371 -128
2018-12-16 12:23:34 GMT 54.060833 -2.114222 27,000 196 373 0
2018-12-16 12:23:31 GMT 54.064838 -2.112283 27,000 196 373 0
2018-12-16 12:23:28 GMT 54.069492 -2.110102 27,000 196 373 0
2018-12-16 12:23:25 GMT 54.074799 -2.107517 27,000 196 374 0
2018-12-16 12:23:22 GMT 54.082108 -2.103963 27,000 197 374 64
2018-12-16 12:23:19 GMT 54.085415 -2.102347 27,000 197 375 64
2018-12-16 12:23:16 GMT 54.091049 -2.099566 27,000 197 375 64
2018-12-16 12:23:13 GMT 54.095375 -2.097419 26,975 197 375 64
2018-12-16 12:23:10 GMT 54.100731 -2.094753 26,975 197 376 0
2018-12-16 12:23:07 GMT 54.105057 -2.092582 26,975 197 376 0
2018-12-16 12:23:04 GMT 54.110737 -2.089664 27,000 197 376 -64
2018-12-16 12:23:01 GMT 54.115082 -2.087481 27,000 197 376 0
2018-12-16 12:22:58 GMT 54.119396 -2.085302 27,000 197 376 0
2018-12-16 12:22:55 GMT 54.126389 -2.081752 27,000 197 376 64
2018-12-16 12:22:52 GMT 54.130371 -2.079712 27,000 197 375 64
2018-12-16 12:22:49 GMT 54.136063 -2.076901 27,000 197 375 64
2018-12-16 12:22:46 GMT 54.140018 -2.074881 27,000 197 375 64
2018-12-16 12:22:43 GMT 54.146027 -2.071892 26,975 197 376 64
2018-12-16 12:22:37 GMT 54.156033 -2.066884 26,975 197 375 128
2018-12-16 12:22:33 GMT 54.162369 -2.063782 26,975 197 375 128
2018-12-16 12:22:30 GMT 54.171021 -2.059466 26,950 197 376 256
2018-12-16 12:22:24 GMT 54.178703 -2.055655 26,950 197 376 256
2018-12-16 12:22:21 GMT 54.183060 -2.053502 26,925 197 377 384
2018-12-16 12:22:18 GMT 54.187775 -2.051226 26,900 197 377 448
2018-12-16 12:22:15 GMT 54.192764 -2.048708 26,875 196 377 960
2018-12-16 12:22:12 GMT 54.197464 -2.046446 26,825 196 376 1088
2018-12-16 12:22:09 GMT 54.202469 -2.044085 26,800 196 375 1216
2018-12-16 12:22:06 GMT 54.207520 -2.041841 26,750 194 374 1536
2018-12-16 12:22:02 GMT 54.214226 -2.038933 26,575 194 374 1792
2018-12-16 12:21:59 GMT 54.220974 -2.036267 26,500 193 375 1984
2018-12-16 12:21:56 GMT 54.225723 -2.034571 26,425 192 375 2048
2018-12-16 12:21:53 GMT 54.229820 -2.033117 26,275 192 376 2112
2018-12-16 12:21:50 GMT 54.235611 -2.031215 26,100 191 376 2112
2018-12-16 12:21:46 GMT 54.241409 -2.029401 26,075 191 376 2240
2018-12-16 12:21:43 GMT 54.245865 -2.027998 25,950 191 376 2240
2018-12-16 12:21:40 GMT 54.251698 -2.026170 25,875 191 376 2304
2018-12-16 12:21:37 GMT 54.257145 -2.024393 25,775 191 376 2304
2018-12-16 12:21:34 GMT 54.260925 -2.023211 25,675 191 376 2304
2018-12-16 12:21:31 GMT 54.266037 -2.021565 25,350 191 377 2432
2018-12-16 12:21:28 GMT 54.270832 -2.020030 24,875 191 377 2624
2018-12-16 12:21:25 GMT 54.277359 -2.017953 25,275 191 377 2624
2018-12-16 12:21:22 GMT 54.288662 -2.014160 24,950 192 379 2688
2018-12-16 12:21:19 GMT 54.288662 -2.014160 24,925 192 379 2688
2018-12-16 12:21:16 GMT 54.293839 -2.012437 24,575 192 379 2752
2018-12-16 12:21:13 GMT 54.297958 -2.010983 24,650 192 380 2752
2018-12-16 12:21:10 GMT 54.310028 -2.006836 24,450 192 382 2624
2018-12-16 12:21:07 GMT 54.310028 -2.006836 24,325 192 382 2624
2018-12-16 12:21:04 GMT 54.319382 -2.003632 24,125 192 384 2304
2018-12-16 12:20:58 GMT 54.328445 -2.000562 23,900 192 384 2368
2018-12-16 12:20:55 GMT 54.328445 -2.000562 23,850 192 384 2304
2018-12-16 12:20:52 GMT 54.333984 -1.998623 23,725 192 384 2304
2018-12-16 12:20:49 GMT 54.340256 -1.996523 23,625 192 384 2176
2018-12-16 12:20:46 GMT 54.344105 -1.995184 23,400 192 384 2048
2018-12-16 12:20:42 GMT 54.352440 -1.992271 23,325 192 384 1984
2018-12-16 12:20:39 GMT 54.356964 -1.990706 22,975 192 383 1920
2018-12-16 12:20:36 GMT 54.362503 -1.988849 23,125 192 383 1984
2018-12-16 12:20:33 GMT 54.367008 -1.987277 22,975 192 383 2048
2018-12-16 12:20:29 GMT 54.380184 -1.982783 22,825 192 382 2368
2018-12-16 12:20:26 GMT 54.380184 -1.982783 22,775 192 382 2368
2018-12-16 12:20:23 GMT 54.384373 -1.981284 22,625 192 383 2368
2018-12-16 12:20:19 GMT 54.391308 -1.978954 22,550 192 383 2368
2018-12-16 12:20:16 GMT 54.397549 -1.976790 22,350 192 383 2240
2018-12-16 12:20:13 GMT 54.402054 -1.975196 22,275 192 383 2176
2018-12-16 12:20:10 GMT 54.406219 -1.973823 22,075 192 383 2240
2018-12-16 12:20:07 GMT 54.412445 -1.971642 21,950 192 382 2240
2018-12-16 12:20:04 GMT 54.418358 -1.969632 21,875 192 382 2240
2018-12-16 12:20:01 GMT 54.423847 -1.967801 21,700 192 381 2048
2018-12-16 12:19:58 GMT 54.427341 -1.966553 21,450 192 380 2048
2018-12-16 12:19:55 GMT 54.433533 -1.964389 21,525 192 379 2112
2018-12-16 12:19:52 GMT 54.438675 -1.962514 21,525 192 379 2112
2018-12-16 12:19:48 GMT 54.444855 -1.960333 21,250 192 378 1920
2018-12-16 12:19:45 GMT 54.448975 -1.958878 21,175 192 377 1920
2018-12-16 12:19:42 GMT 54.456158 -1.956315 21,100 192 376 1856
2018-12-16 12:19:38 GMT 54.461243 -1.954516 20,975 192 375 1792
2018-12-16 12:19:35 GMT 54.474152 -1.949912 20,850 192 374 1856
2018-12-16 12:19:31 GMT 54.474152 -1.949912 20,800 192 369 2368
2018-12-16 12:19:28 GMT 54.479198 -1.948159 20,625 192 372 2048
2018-12-16 12:19:25 GMT 54.483250 -1.946744 20,600 192 371 2112
2018-12-16 12:19:22 GMT 54.490997 -1.944015 20,350 192 371 2112
2018-12-16 12:19:19 GMT 54.493698 -1.943045 20,275 192 370 2240
2018-12-16 12:19:16 GMT 54.501068 -1.940460 20,200 192 369 2304
2018-12-16 12:19:13 GMT 54.504410 -1.939248 20,175 192 369 2368
2018-12-16 12:19:10 GMT 54.512421 -1.936340 20,025 193 369 2368
2018-12-16 12:19:07 GMT 54.518070 -1.934260 19,775 193 368 2432
2018-12-16 12:19:01 GMT 54.524681 -1.931763 19,625 193 367 2496
2018-12-16 12:18:57 GMT 54.536957 -1.927050 19,300 193 367 2496
2018-12-16 12:18:53 GMT 54.536957 -1.927050 19,175 193 366 2624
2018-12-16 12:18:49 GMT 54.543549 -1.924465 19,050 193 366 2816
2018-12-16 12:18:46 GMT 54.549820 -1.921942 18,925 194 366 2816
2018-12-16 12:18:43 GMT 54.553776 -1.920360 18,825 193 366 2752
2018-12-16 12:18:40 GMT 54.558701 -1.918407 18,700 193 366 2688
2018-12-16 12:18:36 GMT 54.565647 -1.915699 18,425 194 366 2688
2018-12-16 12:18:33 GMT 54.570602 -1.913641 18,350 194 366 2688
2018-12-16 12:18:29 GMT 54.576820 -1.911122 18,200 194 365 2688
2018-12-16 12:18:26 GMT 54.583431 -1.908542 18,050 194 365 2688
2018-12-16 12:18:23 GMT 54.586689 -1.907210 17,875 194 365 2752
2018-12-16 12:18:18 GMT 54.594910 -1.903866 17,525 193 365 2688
2018-12-16 12:18:15 GMT 54.599167 -1.902216 17,575 194 364 2624
2018-12-16 12:18:12 GMT 54.605076 -1.899802 17,375 194 364 2432
2018-12-16 12:18:09 GMT 54.610657 -1.897484 17,200 195 361 2176
2018-12-16 12:18:06 GMT 54.614899 -1.895724 17,100 194 363 2240
2018-12-16 12:18:03 GMT 54.620407 -1.893364 16,975 195 361 2176
2018-12-16 12:17:58 GMT 54.627502 -1.890295 16,750 194 360 2240
2018-12-16 12:17:55 GMT 54.633316 -1.887790 15,400 198 345 2368
2018-12-16 12:17:52 GMT 54.638779 -1.885487 16,550 194 357 2048
2018-12-16 12:17:49 GMT 54.641994 -1.884155 16,375 194 356 1920
2018-12-16 12:17:46 GMT 54.647415 -1.881813 16,350 194 355 1920
2018-12-16 12:17:42 GMT 54.653137 -1.879389 16,250 195 352 2112
2018-12-16 12:17:39 GMT 54.658173 -1.877208 16,175 195 350 2368
2018-12-16 12:17:35 GMT 54.664398 -1.874300 15,975 196 348 2496
2018-12-16 12:17:32 GMT 54.668434 -1.872420 15,850 197 347 2432
2018-12-16 12:17:28 GMT 54.674580 -1.869257 15,700 198 345 2368
2018-12-16 12:17:25 GMT 54.681564 -1.865414 15,575 199 344 2368
2018-12-16 12:17:22 GMT 54.690220 -1.860268 14,900 200 340 2624
2018-12-16 12:17:18 GMT 54.690220 -1.860268 15,275 200 340 2688
2018-12-16 12:17:15 GMT 54.694061 -1.857901 15,175 200 339 2816
2018-12-16 12:17:12 GMT 54.699112 -1.854775 15,075 200 338 2880
2018-12-16 12:17:08 GMT 54.705582 -1.850780 14,750 200 337 2944
2018-12-16 12:17:04 GMT 54.711136 -1.847400 14,325 200 337 2816
2018-12-16 12:17:00 GMT 54.715546 -1.844704 14,425 200 337 2752
2018-12-16 12:16:57 GMT 54.725830 -1.838352 14,150 200 336 2368
2018-12-16 12:16:54 GMT 54.729309 -1.836252 14,050 200 334 2880
2018-12-16 12:16:51 GMT 54.729309 -1.836252 14,000 200 335 2688
2018-12-16 12:16:45 GMT 54.738358 -1.830722 13,350 200 333 3712
2018-12-16 12:16:42 GMT 54.743568 -1.827476 13,550 200 333 3264
2018-12-16 12:16:37 GMT 54.749947 -1.823564 13,350 200 333 3712
2018-12-16 12:16:34 GMT 54.754898 -1.820580 13,000 200 333 3712
2018-12-16 12:16:31 GMT 54.758423 -1.818480 12,450 200 333 3712
2018-12-16 12:16:26 GMT 54.766846 -1.813410 12,575 200 330 2560
2018-12-16 12:16:23 GMT 54.770943 -1.810913 12,425 200 333 3200
2018-12-16 12:16:19 GMT 54.775864 -1.807978 12,225 200 333 3136
2018-12-16 12:16:15 GMT 54.782227 -1.804100 12,000 200 330 2624
2018-12-16 12:16:12 GMT 54.787445 -1.800950 11,825 200 329 2304
2018-12-16 12:16:08 GMT 54.792309 -1.798012 11,425 200 325 1664
2018-12-16 12:16:05 GMT 54.800491 -1.792953 11,275 200 322 1152
2018-12-16 12:15:58 GMT 54.805763 -1.789689 11,475 200 318 1152
2018-12-16 12:15:53 GMT 54.813721 -1.784713 11,200 200 308 1536
2018-12-16 12:15:50 GMT 54.816925 -1.782693 11,300 200 308 1536
2018-12-16 12:15:42 GMT 54.827499 -1.776312 11,050 199 297 1536
2018-12-16 12:15:38 GMT 54.831924 -1.773793 11,025 199 295 1472
2018-12-16 12:15:34 GMT 54.838898 -1.770253 10,850 195 288 1408
2018-12-16 12:15:31 GMT 54.840679 -1.769465 10,800 194 284 1472
2018-12-16 12:15:27 GMT 54.847092 -1.767022 10,700 191 279 1600
2018-12-16 12:15:23 GMT 54.851898 -1.765553 10,625 189 273 1920
2018-12-16 12:15:20 GMT 54.855148 -1.764679 10,500 189 273 1920
2018-12-16 12:15:16 GMT 54.860325 -1.763306 10,450 189 268 2560
2018-12-16 12:15:12 GMT 54.865952 -1.761852 10,075 188 264 3200
2018-12-16 12:15:09 GMT 54.869339 -1.761044 10,000 188 264 3264
2018-12-16 12:15:02 GMT 54.878036 -1.759024 9,600 188 262 3328
2018-12-16 12:14:59 GMT 54.881130 -1.758229 9,450 188 261 3328
2018-12-16 12:14:50 GMT 54.891861 -1.755712 9,000 188 259 3264
2018-12-16 12:14:47 GMT 54.894958 -1.754983 8,775 188 257 3328
2018-12-16 12:14:42 GMT 54.901291 -1.753450 8,475 189 255 3520
2018-12-16 12:14:39 GMT 54.903851 -1.752819 8,350 189 254 3712
2018-12-16 12:14:32 GMT 54.913624 -1.750239 7,675 189 254 4480
2018-12-16 12:14:29 GMT 54.915955 -1.749656 7,225 188 256 4480
2018-12-16 12:14:22 GMT 54.924225 -1.748280 6,975 175 262 4352
2018-12-16 12:14:19 GMT 54.928333 -1.748491 6,850 174 263 4288
2018-12-16 12:14:12 GMT 54.936310 -1.750865 6,375 165 268 3776
2018-12-16 12:14:08 GMT 54.940613 -1.752885 6,250 164 268 3520
2018-12-16 12:14:01 GMT 54.950310 -1.757480 5,700 165 259 2240
2018-12-16 12:13:58 GMT 54.953339 -1.758863 5,625 165 256 2112
2018-12-16 12:13:50 GMT 54.963593 -1.763467 5,275 165 241 2048
2018-12-16 12:13:47 GMT 54.965332 -1.764275 5,250 166 240 2048
2018-12-16 12:13:40 GMT 54.972698 -1.767384 5,025 166 228 1984
2018-12-16 12:13:37 GMT 54.975723 -1.768637 4,925 166 225 1920
2018-12-16 12:13:31 GMT 54.982040 -1.771384 4,675 165 215 1920
2018-12-16 12:13:27 GMT 54.985428 -1.772919 4,550 165 209 1984
2018-12-16 12:13:21 GMT 54.991379 -1.775585 4,350 170 191 1792
2018-12-16 12:13:16 GMT 54.995636 -1.777281 4,200 169 194 1664
2018-12-16 12:13:06 GMT 55.004242 -1.778654 3,900 185 179 2112
2018-12-16 12:12:58 GMT 55.010193 -1.775908 3,525 222 173 2368
2018-12-16 12:12:55 GMT 55.012268 -1.773876 3,525 222 173 2368
2018-12-16 12:12:45 GMT 55.017761 -1.763888 3,000 239 172 2112
2018-12-16 12:12:35 GMT 55.021393 -1.751154 2,650 245 166 1536
2018-12-16 12:12:25 GMT 55.024559 -1.739419 2,400 246 155 1664
2018-12-16 12:12:14 GMT 55.027538 -1.727850 2,100 247 147 2240
2018-12-16 12:11:55 GMT 55.033081 -1.707647 1,100 245 148 2368
2018-12-16 12:11:40 GMT 55.037544 -1.691208 0 244 145
2018-12-16 12:11:25 GMT 55.040886 -1.678661 0 244 82
2018-12-16 12:11:05 GMT 55.042110 -1.674042 0 244 0
2018-12-16 12:10:55 GMT 55.042110 -1.674042 0 244 0
2018-12-16 12:10:39 GMT 55.042122 -1.674042 0 244 0
2018-12-16 12:10:24 GMT 55.042145 -1.673880 0 236 5
2018-12-16 12:10:08 GMT 55.042503 -1.673605 0 171 8
2018-12-16 12:09:53 GMT 55.043110 -1.673896 0 137 10
2018-12-16 12:09:38 GMT 55.043324 -1.675213 0 95 13
2018-12-16 12:09:23 GMT 55.043232 -1.676647 0 64 14
2018-12-16 12:09:07 GMT 55.042740 -1.678485 0 64 17
2018-12-16 12:08:52 GMT 55.042168 -1.680646 0 64 20
2018-12-16 12:08:37 GMT 55.041470 -1.683301 0 64 28
2018-12-16 12:08:21 GMT 55.040714 -1.686172 0 64 23
2018-12-16 12:08:05 GMT 55.039925 -1.689128 0 64 28
2018-12-16 12:07:51 GMT 55.039211 -1.691853 0 64 27
2018-12-16 12:07:35 GMT 55.038422 -1.694891 0 67 25
2018-12-16 12:07:20 GMT 55.037918 -1.697762 0 78 24
2018-12-16 12:07:04 GMT 55.037746 -1.700405 0 90 19
2018-12-16 12:06:50 GMT 55.037773 -1.702376 0 92 15
2018-12-16 12:06:34 GMT 55.037750 -1.703992 0 56 12
2018-12-16 12:06:19 GMT 55.036964 -1.704337 0 2 15
2018-12-16 12:06:03 GMT 55.036011 -1.704941 0 64 12
2018-12-16 12:05:48 GMT 55.035908 -1.706294 0 95 12
2018-12-16 12:05:33 GMT 55.035965 -1.707417 0 92 7
2018-12-16 12:05:18 GMT 55.035976 -1.708071 0 78 6
2018-12-16 12:05:01 GMT 55.035835 -1.708436 0 5 1
2018-12-16 12:04:46 GMT 55.035847 -1.708436 0 5 0
2018-12-16 12:04:31 GMT 55.035839 -1.708414 0 5 0
2018-12-16 12:04:16 GMT 55.035835 -1.708416 0 5 0
2018-12-16 12:04:01 GMT 55.035858 -1.708416 0 5 0
2018-12-16 12:03:46 GMT 55.035858 -1.708436 0 5 0
2018-12-16 12:03:31 GMT 55.035858 -1.708416 0 5 0
2018-12-16 12:03:16 GMT 55.035851 -1.708435 0 5 0
2018-12-16 12:02:56 GMT 55.035862 -1.708414 0 5 0
2018-12-16 12:02:11 GMT 55.035870 -1.708436 0 5 0
2018-12-16 12:01:59 GMT 55.035851 -1.708435 0 5 0
2018-12-16 12:01:44 GMT 55.035847 -1.708436 0 5 0
2018-12-16 12:01:28 GMT 55.035908 -1.708414 0 5 2
2018-12-16 12:01:13 GMT 55.036034 -1.708416 0 2 2
2018-12-16 12:00:58 GMT 55.036221 -1.708436 0 0 3

Making use of Plane Finder data

You are free to use the raw flight data, aircraft information and images provided in this report for your own purposes provided the data is correctly attributed to Plane Finder. We ask that you please credit Plane Finder and link to planefinder.net in close proximity to the content.

Optionally one of the following logos (no smaller then 150x24px) can be used and must link to planefinder.net

Embedding the Plane Finder map

You are welcome to embed the Plane Finder playback map on your website to offer visitors a more interactive experience. We suggest using the following HTML code:

<iframe src="//planefinder.net/data/report/BA1327-G-EUPD-7700-squawk-2018-12-16/map" width="800" height="600" seamless="seamless"></iframe>

Where our data comes from

Plane Finder has a global network of data feeds and antenna radars that receive data broadcast directly from aircraft. The primary technologies used are ADS-B and MLAT. We also show feeds from the FAA and a FLARM glider feed.

Click here to find out more about the Plane Finder network.

How we collect our data